createdAt,value
2018-03-18T00:01:48.171Z,1.12
2018-03-18T00:04:16.472Z,0.95
2018-03-18T00:06:44.897Z,0.83
2018-03-18T00:09:13.235Z,0.97
2018-03-18T00:11:42.091Z,1.02
2018-03-18T00:14:10.424Z,1.09
2018-03-18T00:16:38.699Z,0.91
2018-03-18T00:19:07.020Z,0.75
2018-03-18T00:21:35.306Z,0.75
2018-03-18T00:24:03.589Z,0.96
2018-03-18T00:26:31.909Z,0.71
2018-03-18T00:29:00.182Z,0.62
2018-03-18T00:31:28.519Z,0.56
2018-03-18T00:33:56.776Z,0.51
2018-03-18T00:36:25.064Z,0.49
2018-03-18T00:38:53.340Z,0.39
2018-03-18T00:41:21.677Z,0.30
2018-03-18T00:43:49.980Z,0.42
2018-03-18T00:46:18.259Z,0.58
2018-03-18T00:48:46.564Z,0.62
2018-03-18T00:51:26.512Z,0.51
2018-03-18T00:53:54.793Z,0.56
2018-03-18T00:56:23.086Z,0.64
2018-03-18T00:58:51.389Z,0.73
2018-03-18T01:01:19.683Z,0.77
2018-03-18T01:03:47.979Z,0.69
2018-03-18T01:06:16.298Z,0.82
2018-03-18T01:08:44.698Z,0.75
2018-03-18T01:11:12.983Z,0.79
2018-03-18T01:13:41.285Z,0.87
2018-03-18T01:16:09.576Z,0.86
2018-03-18T01:18:37.842Z,0.86
2018-03-18T01:21:06.151Z,0.83
2018-03-18T01:23:34.463Z,0.82
2018-03-18T01:26:02.756Z,0.85
2018-03-18T01:28:31.047Z,0.74
2018-03-18T01:30:59.352Z,0.73
2018-03-18T01:33:27.625Z,0.53
2018-03-18T01:35:55.992Z,0.39
2018-03-18T01:38:24.269Z,0.26
2018-03-18T01:40:52.575Z,0.41
2018-03-18T01:43:20.882Z,0.51
2018-03-18T01:45:49.188Z,0.51
2018-03-18T01:48:17.485Z,0.51
2018-03-18T01:50:45.822Z,0.43
2018-03-18T01:53:21.783Z,0.29
2018-03-18T01:55:50.094Z,0.45
2018-03-18T01:58:18.380Z,0.18
2018-03-18T02:00:46.642Z,0.16
2018-03-18T02:03:14.934Z,0.38
2018-03-18T02:05:43.187Z,0.48
2018-03-18T02:08:11.480Z,0.50
2018-03-18T02:10:39.788Z,0.65
2018-03-18T02:13:08.068Z,0.46
2018-03-18T02:15:36.403Z,0.57
2018-03-18T02:18:05.088Z,0.72
2018-03-18T02:20:33.410Z,0.46
2018-03-18T02:23:01.739Z,0.39
2018-03-18T02:25:30.019Z,0.37
2018-03-18T02:27:58.310Z,0.43
2018-03-18T02:30:26.613Z,0.50
2018-03-18T02:32:54.883Z,0.44
2018-03-18T02:35:23.223Z,0.42
2018-03-18T02:37:51.492Z,0.44
2018-03-18T02:40:19.783Z,0.61
2018-03-18T02:42:48.053Z,0.54
2018-03-18T02:45:16.600Z,0.27
2018-03-18T02:47:44.907Z,0.33
2018-03-18T02:50:13.175Z,0.36
2018-03-18T02:52:41.508Z,0.18
2018-03-18T02:55:09.823Z,0.23
2018-03-18T02:57:38.667Z,0.38
2018-03-18T03:00:06.945Z,0.51
2018-03-18T03:02:35.219Z,0.45
2018-03-18T03:05:03.525Z,0.47
2018-03-18T03:07:31.808Z,0.35
2018-03-18T03:10:00.108Z,0.15
2018-03-18T03:12:28.389Z,0.27
2018-03-18T03:14:56.731Z,0.21
2018-03-18T03:17:25.008Z,0.16
2018-03-18T03:19:53.319Z,-0.09
2018-03-18T03:22:21.630Z,-0.07
2018-03-18T03:24:49.944Z,-0.04
2018-03-18T03:27:18.223Z,0.15
2018-03-18T03:29:46.580Z,0.19
2018-03-18T03:32:14.883Z,0.06
2018-03-18T03:34:43.171Z,0.12
2018-03-18T03:37:11.468Z,0.13
2018-03-18T03:39:39.729Z,-0.12
2018-03-18T03:42:08.046Z,-0.12
2018-03-18T03:44:36.347Z,0.02
2018-03-18T03:47:06.106Z,-0.15
2018-03-18T03:49:34.384Z,-0.02
2018-03-18T03:52:02.708Z,-0.27
2018-03-18T03:54:30.979Z,-0.03
2018-03-18T03:56:59.268Z,0.10
2018-03-18T03:59:27.573Z,0.22
2018-03-18T04:01:55.865Z,0.00
2018-03-18T04:04:24.186Z,-0.23
2018-03-18T04:06:52.483Z,-0.14
2018-03-18T04:09:20.786Z,0.01
2018-03-18T04:11:49.066Z,-0.06
2018-03-18T04:14:17.361Z,-0.05
2018-03-18T04:16:45.670Z,0.10
2018-03-18T04:19:13.984Z,0.07
2018-03-18T04:21:42.268Z,0.07
2018-03-18T04:24:10.613Z,0.22
2018-03-18T04:26:38.923Z,0.37
2018-03-18T04:29:07.183Z,0.41
2018-03-18T04:31:35.603Z,0.22
2018-03-18T04:34:04.800Z,0.18
2018-03-18T04:36:33.107Z,0.13
2018-03-18T04:39:01.386Z,0.22
2018-03-18T04:41:29.699Z,0.12
2018-03-18T04:43:58.009Z,-0.03
2018-03-18T04:46:26.319Z,0.04
2018-03-18T04:48:54.586Z,-0.09
2018-03-18T04:51:22.852Z,0.06
2018-03-18T04:53:51.161Z,0.17
2018-03-18T04:56:19.465Z,0.21
2018-03-18T04:58:47.783Z,0.23
2018-03-18T05:01:16.049Z,-0.03
2018-03-18T05:03:44.351Z,-0.02
2018-03-18T05:06:12.667Z,0.01
2018-03-18T05:08:40.964Z,-0.09
2018-03-18T05:11:09.235Z,0.02
2018-03-18T05:13:37.532Z,0.05
2018-03-18T05:16:05.840Z,0.16
2018-03-18T05:18:34.106Z,-0.04
2018-03-18T05:21:02.426Z,-0.17
2018-03-18T05:23:30.683Z,-0.17
2018-03-18T05:25:59.004Z,-0.11
2018-03-18T05:28:27.287Z,-0.14
2018-03-18T05:30:55.596Z,-0.16
2018-03-18T05:33:23.897Z,-0.16
2018-03-18T05:35:52.186Z,-0.10
2018-03-18T05:38:20.474Z,-0.01
2018-03-18T05:40:48.768Z,-0.19
2018-03-18T05:43:17.078Z,-0.37
2018-03-18T05:45:46.019Z,-0.35
2018-03-18T05:48:14.343Z,-0.26
2018-03-18T05:50:42.615Z,-0.08
2018-03-18T05:53:10.938Z,0.09
2018-03-18T05:55:39.227Z,-0.05
2018-03-18T05:58:07.497Z,-0.26
2018-03-18T06:00:35.805Z,-0.15
2018-03-18T06:03:04.079Z,0.02
2018-03-18T06:05:32.376Z,0.12
2018-03-18T06:08:00.867Z,0.14
2018-03-18T06:10:29.178Z,0.19
2018-03-18T06:12:57.425Z,0.20
2018-03-18T06:15:25.683Z,0.11
2018-03-18T06:17:54.004Z,0.14
2018-03-18T06:20:22.816Z,-0.01
2018-03-18T06:22:51.124Z,0.07
2018-03-18T06:25:19.532Z,-0.02
2018-03-18T06:27:47.833Z,0.09
2018-03-18T06:30:16.077Z,0.07
2018-03-18T06:32:44.382Z,0.16
2018-03-18T06:35:12.676Z,0.23
2018-03-18T06:37:40.996Z,0.27
2018-03-18T06:40:09.288Z,0.25
2018-03-18T06:42:37.804Z,0.34
2018-03-18T06:45:06.095Z,0.18
2018-03-18T06:47:34.369Z,0.00
2018-03-18T06:50:03.782Z,-0.03
2018-03-18T06:52:32.062Z,0.11
2018-03-18T06:55:00.353Z,0.03
2018-03-18T06:57:28.746Z,-0.16
2018-03-18T06:59:57.042Z,0.02
2018-03-18T07:02:25.386Z,-0.17
2018-03-18T07:04:53.649Z,-0.04
2018-03-18T07:07:21.981Z,0.03
2018-03-18T07:09:50.271Z,-0.19
2018-03-18T07:12:18.592Z,-0.17
2018-03-18T07:14:47.509Z,0.08
2018-03-18T07:17:15.797Z,0.19
2018-03-18T07:19:44.059Z,0.26
2018-03-18T07:22:12.382Z,0.29
2018-03-18T07:24:40.988Z,0.36
2018-03-18T07:27:09.244Z,0.14
2018-03-18T07:29:37.567Z,-0.19
2018-03-18T07:32:05.832Z,-0.17
2018-03-18T07:34:34.132Z,0.03
2018-03-18T07:37:02.419Z,0.11
2018-03-18T07:39:30.693Z,0.10
2018-03-18T07:41:58.992Z,0.09
2018-03-18T07:44:27.262Z,0.13
2018-03-18T07:46:55.879Z,0.32
2018-03-18T07:49:24.156Z,0.51
2018-03-18T07:51:52.460Z,0.56
2018-03-18T07:54:20.716Z,0.66
2018-03-18T07:56:49.061Z,0.61
2018-03-18T07:59:17.327Z,0.53
2018-03-18T08:01:45.637Z,0.36
2018-03-18T08:04:13.919Z,0.38
2018-03-18T08:06:42.203Z,0.39
2018-03-18T08:09:10.463Z,0.47
2018-03-18T08:11:38.724Z,0.42
2018-03-18T08:14:07.076Z,0.47
2018-03-18T08:16:35.311Z,0.37
2018-03-18T08:19:03.588Z,0.40
2018-03-18T08:21:31.926Z,0.21
2018-03-18T08:24:00.201Z,0.24
2018-03-18T08:26:28.489Z,0.19
2018-03-18T08:28:56.765Z,0.19
2018-03-18T08:31:25.044Z,0.25
2018-03-18T08:33:53.340Z,0.38
2018-03-18T08:36:21.671Z,0.27
2018-03-18T08:38:49.956Z,0.35
2018-03-18T08:41:18.269Z,0.41
2018-03-18T08:43:46.705Z,0.55
2018-03-18T08:46:15.369Z,0.66
2018-03-18T08:48:44.309Z,0.77
2018-03-18T08:51:12.697Z,0.80
2018-03-18T08:53:40.990Z,0.73
2018-03-18T08:56:09.267Z,0.71
2018-03-18T08:58:38.367Z,0.80
2018-03-18T09:01:06.645Z,0.60
2018-03-18T09:03:34.927Z,0.76
2018-03-18T09:06:03.203Z,0.57
2018-03-18T09:08:31.499Z,0.53
2018-03-18T09:10:59.795Z,0.66
2018-03-18T09:13:28.101Z,0.66
2018-03-18T09:15:56.384Z,0.74
2018-03-18T09:18:24.689Z,0.59
2018-03-18T09:20:53.346Z,0.45
2018-03-18T09:23:21.643Z,0.53
2018-03-18T09:25:49.978Z,0.46
2018-03-18T09:28:18.776Z,0.53
2018-03-18T09:30:47.115Z,0.53
2018-03-18T09:33:15.387Z,0.54
2018-03-18T09:35:43.779Z,0.45
2018-03-18T09:38:12.034Z,0.51
2018-03-18T09:40:40.380Z,0.54
2018-03-18T09:43:08.700Z,0.45
2018-03-18T09:45:37.006Z,0.31
2018-03-18T09:48:05.384Z,0.42
2018-03-18T09:50:33.696Z,0.39
2018-03-18T09:53:02.028Z,0.36
2018-03-18T09:55:30.260Z,0.41
2018-03-18T09:57:58.579Z,0.41
2018-03-18T10:00:26.867Z,0.49
2018-03-18T10:02:55.256Z,0.51
2018-03-18T10:05:23.519Z,0.52
2018-03-18T10:07:51.853Z,0.49
2018-03-18T10:10:20.124Z,0.52
2018-03-18T10:12:48.435Z,0.58
2018-03-18T10:15:16.741Z,0.60
2018-03-18T10:17:45.008Z,0.60
2018-03-18T10:20:13.343Z,0.67
2018-03-18T10:22:41.553Z,0.54
2018-03-18T10:25:09.855Z,0.48
2018-03-18T10:27:38.115Z,0.43
2018-03-18T10:30:06.604Z,0.36
2018-03-18T10:32:34.887Z,0.29
2018-03-18T10:35:03.175Z,0.23
2018-03-18T10:37:31.506Z,0.26
2018-03-18T10:39:59.779Z,0.23
2018-03-18T10:42:28.073Z,0.46
2018-03-18T10:44:56.344Z,0.18
2018-03-18T10:47:25.550Z,0.21
2018-03-18T10:49:54.175Z,0.28
2018-03-18T10:52:22.463Z,0.41
2018-03-18T10:54:50.778Z,0.66
2018-03-18T10:57:19.980Z,0.64
2018-03-18T10:59:48.274Z,0.50
2018-03-18T11:02:17.409Z,0.56
2018-03-18T11:04:45.849Z,0.52
2018-03-18T11:07:14.145Z,0.56
2018-03-18T11:09:42.450Z,0.62
2018-03-18T11:12:10.824Z,0.67
2018-03-18T11:14:39.812Z,0.76
2018-03-18T11:17:08.120Z,0.77
2018-03-18T11:19:36.417Z,0.84
2018-03-18T11:22:05.624Z,0.78
2018-03-18T11:24:34.105Z,0.84
2018-03-18T11:27:06.403Z,1.01
2018-03-18T11:29:34.674Z,0.93
2018-03-18T11:32:02.993Z,1.00
2018-03-18T11:34:31.848Z,1.03
2018-03-18T11:37:00.606Z,0.93
2018-03-18T11:39:28.970Z,1.07
2018-03-18T11:41:57.264Z,1.06
2018-03-18T11:44:25.656Z,1.03
2018-03-18T11:46:53.964Z,1.11
2018-03-18T11:49:22.316Z,1.14
2018-03-18T11:51:50.586Z,0.78
2018-03-18T11:54:18.925Z,0.80
2018-03-18T11:56:48.064Z,0.71
2018-03-18T11:59:16.464Z,0.75
2018-03-18T12:01:44.897Z,0.86
2018-03-18T12:04:13.205Z,0.91
2018-03-18T12:06:41.504Z,0.98
2018-03-18T12:09:09.823Z,0.93
2018-03-18T12:11:38.111Z,0.87
2018-03-18T12:14:06.406Z,0.82
2018-03-18T12:16:35.951Z,0.82
2018-03-18T12:19:05.178Z,0.61
2018-03-18T12:21:33.508Z,0.68
2018-03-18T12:24:01.781Z,0.75
2018-03-18T12:26:30.068Z,0.90
2018-03-18T12:28:58.329Z,0.85
2018-03-18T12:31:26.625Z,0.92
2018-03-18T12:33:55.029Z,0.93
2018-03-18T12:36:23.351Z,0.92
2018-03-18T12:38:51.616Z,0.79
2018-03-18T12:41:19.920Z,0.86
2018-03-18T12:43:48.213Z,0.89
2018-03-18T12:46:16.467Z,1.08
2018-03-18T12:48:44.763Z,1.14
2018-03-18T12:51:13.112Z,1.30
2018-03-18T12:53:41.416Z,1.31
2018-03-18T12:56:10.528Z,1.45
2018-03-18T12:58:38.975Z,1.47
2018-03-18T13:01:07.314Z,1.21
2018-03-18T13:03:35.631Z,1.24
2018-03-18T13:06:04.838Z,0.99
2018-03-18T13:08:33.178Z,1.10
2018-03-18T13:11:01.492Z,1.01
2018-03-18T13:13:29.765Z,1.03
2018-03-18T13:15:58.084Z,1.12
2018-03-18T13:18:26.383Z,1.19
2018-03-18T13:20:54.677Z,1.19
2018-03-18T13:23:22.962Z,1.33
2018-03-18T13:25:51.241Z,1.31
2018-03-18T13:28:19.546Z,1.52
2018-03-18T13:30:47.885Z,1.49
2018-03-18T13:33:16.176Z,1.26
2018-03-18T13:35:44.655Z,1.34
2018-03-18T13:38:12.921Z,1.45
2018-03-18T13:40:41.230Z,1.52
2018-03-18T13:43:09.518Z,1.55
2018-03-18T13:45:38.792Z,1.56
2018-03-18T13:48:07.082Z,1.43
2018-03-18T13:50:35.361Z,1.58
2018-03-18T13:53:03.635Z,1.53
2018-03-18T13:55:31.934Z,1.67
2018-03-18T13:58:00.210Z,1.68
2018-03-18T14:00:28.849Z,1.72
2018-03-18T14:02:57.305Z,1.57
2018-03-18T14:05:25.777Z,1.90
2018-03-18T14:07:54.154Z,1.79
2018-03-18T14:10:22.522Z,1.62
2018-03-18T14:12:50.791Z,1.69
2018-03-18T14:15:19.097Z,1.57
2018-03-18T14:17:47.356Z,1.66
2018-03-18T14:20:15.728Z,1.63
2018-03-18T14:22:44.085Z,1.49
2018-03-18T14:27:46.788Z,1.67
2018-03-18T14:30:15.163Z,1.74
2018-03-18T14:32:43.413Z,1.99
2018-03-18T14:35:11.742Z,2.01
2018-03-18T14:37:40.119Z,2.04
2018-03-18T14:40:08.442Z,2.08
2018-03-18T14:42:36.728Z,2.02
2018-03-18T14:45:05.640Z,2.09
2018-03-18T14:47:33.911Z,1.88
2018-03-18T14:50:02.299Z,2.00
2018-03-18T14:52:30.610Z,1.85
2018-03-18T14:54:58.892Z,1.88
2018-03-18T14:57:27.216Z,1.98
2018-03-18T14:59:55.507Z,2.05
2018-03-18T15:02:23.813Z,2.13
2018-03-18T15:04:52.144Z,2.14
2018-03-18T15:07:20.441Z,1.96
2018-03-18T15:09:48.771Z,2.08
2018-03-18T15:12:17.126Z,2.15
2018-03-18T15:14:45.388Z,2.16
2018-03-18T15:17:13.801Z,2.09
2018-03-18T15:19:42.056Z,2.22
2018-03-18T15:22:10.391Z,2.23
2018-03-18T15:24:38.712Z,2.16
2018-03-18T15:27:06.988Z,2.27
2018-03-18T15:29:35.280Z,2.39
2018-03-18T15:32:04.590Z,2.33
2018-03-18T15:34:32.870Z,2.27
2018-03-18T15:37:01.481Z,2.10
2018-03-18T15:39:29.851Z,2.13
2018-03-18T15:41:58.244Z,2.21
2018-03-18T15:44:26.617Z,2.33
2018-03-18T15:46:55.178Z,2.41
2018-03-18T15:49:23.482Z,2.33
2018-03-18T15:51:51.781Z,2.20
2018-03-18T15:54:20.089Z,2.11
2018-03-18T15:56:49.235Z,2.25
2018-03-18T15:59:17.744Z,2.35
2018-03-18T16:01:46.295Z,2.25
2018-03-18T16:04:14.665Z,2.17
2018-03-18T16:06:43.322Z,2.18
2018-03-18T16:09:11.740Z,2.21
2018-03-18T16:11:40.020Z,2.18
2018-03-18T16:14:08.339Z,2.03
2018-03-18T16:16:36.634Z,2.10
2018-03-18T16:19:04.995Z,2.01
2018-03-18T16:21:33.270Z,2.00
2018-03-18T16:24:01.575Z,2.10
2018-03-18T16:26:29.960Z,2.00
2018-03-18T16:29:10.024Z,1.97
2018-03-18T16:31:38.426Z,2.06
2018-03-18T16:34:06.880Z,2.15
2018-03-18T16:36:35.129Z,2.20
2018-03-18T16:39:03.430Z,1.98
2018-03-18T16:41:31.806Z,2.10
2018-03-18T16:44:00.117Z,2.16
2018-03-18T16:46:28.419Z,2.10
2018-03-18T16:48:56.667Z,1.99
2018-03-18T16:51:25.048Z,2.06
2018-03-18T16:53:53.413Z,2.05
2018-03-18T16:56:21.704Z,2.10
2018-03-18T16:58:49.980Z,2.12
2018-03-18T17:01:18.310Z,2.00
2018-03-18T17:03:46.590Z,2.02
2018-03-18T17:06:15.793Z,1.97
2018-03-18T17:08:44.152Z,2.02
2018-03-18T17:11:12.579Z,2.07
2018-03-18T17:13:40.931Z,2.03
2018-03-18T17:16:09.203Z,2.03
2018-03-18T17:18:37.496Z,2.05
2018-03-18T17:21:05.825Z,2.05
2018-03-18T17:23:34.096Z,1.96
2018-03-18T17:26:02.399Z,1.90
2018-03-18T17:28:31.369Z,1.91
2018-03-18T17:30:59.673Z,1.99
2018-03-18T17:33:28.020Z,2.04
2018-03-18T17:35:56.283Z,2.09
2018-03-18T17:38:24.558Z,1.96
2018-03-18T17:40:52.874Z,1.91
2018-03-18T17:43:21.115Z,1.89
2018-03-18T17:46:01.229Z,1.86
2018-03-18T17:48:41.335Z,1.87
2018-03-18T17:51:21.832Z,2.04
2018-03-18T17:54:01.910Z,2.05
2018-03-18T17:56:41.959Z,1.99
2018-03-18T17:59:10.225Z,2.05
2018-03-18T18:01:38.623Z,2.13
2018-03-18T18:04:06.873Z,2.19
2018-03-18T18:06:35.204Z,2.11
2018-03-18T18:09:04.438Z,1.99
2018-03-18T18:11:32.756Z,1.89
2018-03-18T18:14:01.193Z,1.96
2018-03-18T18:16:29.426Z,2.00
2018-03-18T18:18:57.704Z,1.95
2018-03-18T18:21:26.476Z,2.03
2018-03-18T18:23:54.944Z,2.08
2018-03-18T18:26:23.250Z,2.08
2018-03-18T18:28:51.565Z,2.00
2018-03-18T18:31:19.840Z,1.92
2018-03-18T18:33:48.121Z,2.03
2018-03-18T18:36:16.435Z,2.08
2018-03-18T18:38:44.767Z,1.98
2018-03-18T18:41:13.027Z,1.97
2018-03-18T18:43:41.304Z,1.75
2018-03-18T18:46:09.609Z,1.80
2018-03-18T18:48:37.872Z,1.93
2018-03-18T18:51:06.282Z,1.94
2018-03-18T18:53:34.524Z,1.90
2018-03-18T18:56:02.813Z,1.95
2018-03-18T18:58:31.081Z,2.00
2018-03-18T19:00:59.352Z,2.02
2018-03-18T19:03:27.611Z,1.96
2018-03-18T19:05:55.888Z,2.02
2018-03-18T19:08:24.140Z,2.07
2018-03-18T19:10:52.430Z,2.12
2018-03-18T19:13:20.746Z,2.06
2018-03-18T19:15:49.032Z,1.91
2018-03-18T19:18:17.313Z,1.87
2018-03-18T19:20:45.672Z,1.86
2018-03-18T19:23:13.982Z,1.79
2018-03-18T19:25:42.273Z,1.83
2018-03-18T19:28:10.563Z,1.98
2018-03-18T19:30:38.850Z,2.04
2018-03-18T19:33:07.084Z,2.05
2018-03-18T19:35:35.395Z,2.03
2018-03-18T19:38:03.662Z,1.96
2018-03-18T19:40:31.960Z,1.90
2018-03-18T19:43:00.285Z,2.01
2018-03-18T19:45:28.598Z,1.88
2018-03-18T19:47:56.910Z,1.96
2018-03-18T19:50:25.229Z,2.07
2018-03-18T19:52:53.531Z,2.01
2018-03-18T19:55:21.828Z,2.00
2018-03-18T19:57:50.203Z,1.58
2018-03-18T20:00:18.484Z,1.69
2018-03-18T20:02:46.800Z,1.66
2018-03-18T20:05:15.094Z,1.64
2018-03-18T20:07:43.495Z,1.72
2018-03-18T20:10:11.729Z,1.88
2018-03-18T20:12:40.052Z,1.74
2018-03-18T20:15:08.320Z,1.80
2018-03-18T20:17:36.620Z,1.75
2018-03-18T20:20:04.875Z,1.58
2018-03-18T20:22:33.141Z,1.60
2018-03-18T20:25:01.747Z,1.57
2018-03-18T20:27:30.023Z,1.61
2018-03-18T20:29:58.276Z,1.63
2018-03-18T20:32:26.552Z,1.62
2018-03-18T20:34:54.845Z,1.47
2018-03-18T20:37:23.124Z,1.59
2018-03-18T20:39:51.376Z,1.69
2018-03-18T20:42:19.694Z,1.64
2018-03-18T20:44:47.986Z,1.73
2018-03-18T20:47:16.283Z,1.77
2018-03-18T20:49:44.569Z,1.73
2018-03-18T20:52:12.841Z,1.82
2018-03-18T20:54:41.135Z,1.80
2018-03-18T20:57:09.459Z,1.76
2018-03-18T20:59:37.747Z,1.67
2018-03-18T21:02:05.991Z,1.41
2018-03-18T21:04:34.259Z,1.30
2018-03-18T21:07:02.503Z,1.47
2018-03-18T21:09:30.825Z,1.55
2018-03-18T21:11:59.099Z,1.52
2018-03-18T21:14:27.379Z,1.46
2018-03-18T21:16:55.691Z,1.48
2018-03-18T21:19:23.962Z,1.51
2018-03-18T21:21:52.224Z,1.64
2018-03-18T21:24:20.614Z,1.52
2018-03-18T21:26:48.866Z,1.40
2018-03-18T21:29:17.196Z,1.41
2018-03-18T21:31:45.444Z,1.36
2018-03-18T21:34:13.746Z,1.35
2018-03-18T21:36:42.008Z,1.24
2018-03-18T21:39:10.273Z,1.21
2018-03-18T21:41:38.600Z,1.13
2018-03-18T21:44:06.871Z,1.09
2018-03-18T21:46:35.167Z,1.16
2018-03-18T21:49:03.430Z,1.27
2018-03-18T21:51:32.440Z,1.32
2018-03-18T21:54:00.733Z,1.33
2018-03-18T21:56:29.183Z,1.38
2018-03-18T21:58:57.429Z,1.32
2018-03-18T22:01:25.740Z,1.35
2018-03-18T22:03:54.036Z,1.28
2018-03-18T22:06:22.360Z,1.25
2018-03-18T22:08:50.757Z,1.37
2018-03-18T22:11:19.039Z,1.37
2018-03-18T22:13:47.296Z,1.40
2018-03-18T22:16:15.588Z,1.45
2018-03-18T22:18:43.867Z,1.39
2018-03-18T22:21:12.482Z,1.35
2018-03-18T22:23:40.742Z,1.24
2018-03-18T22:26:09.345Z,1.18
2018-03-18T22:28:37.623Z,1.24
2018-03-18T22:31:05.932Z,1.33
2018-03-18T22:33:34.175Z,1.32
2018-03-18T22:36:02.459Z,1.32
2018-03-18T22:38:30.731Z,1.40
2018-03-18T22:40:59.035Z,1.36
2018-03-18T22:43:27.323Z,1.28
2018-03-18T22:45:55.606Z,1.40
2018-03-18T22:48:23.904Z,1.36
2018-03-18T22:50:52.160Z,1.35
2018-03-18T22:53:20.469Z,1.39
2018-03-18T22:55:48.756Z,1.13
2018-03-18T22:58:17.055Z,1.20
2018-03-18T23:00:45.304Z,1.10
2018-03-18T23:03:14.378Z,1.22
2018-03-18T23:05:42.644Z,1.14
2018-03-18T23:08:10.953Z,1.20
2018-03-18T23:10:39.234Z,1.18
2018-03-18T23:13:07.543Z,1.06
2018-03-18T23:15:35.816Z,0.96
2018-03-18T23:18:04.094Z,1.05
2018-03-18T23:20:32.397Z,1.10
2018-03-18T23:23:00.667Z,1.10
2018-03-18T23:25:28.935Z,1.06
2018-03-18T23:27:57.280Z,1.14
2018-03-18T23:30:25.545Z,1.12
2018-03-18T23:32:53.823Z,1.15
2018-03-18T23:35:22.178Z,1.08
2018-03-18T23:37:50.528Z,0.95
2018-03-18T23:40:18.819Z,0.93
2018-03-18T23:42:47.079Z,1.08
2018-03-18T23:45:15.375Z,1.14
2018-03-18T23:47:43.647Z,1.10
2018-03-18T23:50:11.959Z,1.01
2018-03-18T23:52:40.218Z,1.14
2018-03-18T23:55:08.512Z,1.12
2018-03-18T23:57:36.790Z,1.13
